Terminal Aerodrome Forecast
Issued by NWS

Home | Current Version | Previous Version | Text Only | Print | Product List | Glossary On
Versions: 1 2 3 4 5 6 7 8 9 10 11 12 13 14 15 16 17 18 19 20 21 22 23 24 25
130
FTUS43 KSGF 272320
TAFBBG
TAF
KBBG 272320Z 2800/2824 VRB03KT P6SM SCT035 BKN150
     FM280200 00000KT P6SM BKN150
     FM281000 00000KT 4SM BR SCT250
     FM281500 VRB03KT P6SM SCT035 PROB30 2816/2818 4SM TSRA SCT050CB
      BKN130
     FM282300 VRB03KT P6SM SCT060=

USA.gov is the U.S. government's official web portal to all federal, state and local government web resources and services.